Time;durP1;ratioP1;P1;durP2;ratioP2;P2;SDS_P1;SDS_P2;PMS_P1;PMS_P2;Temp;Humidity;BMP_temperature;BMP_pressure;BME280_temperature;BME280_humidity;BME280_pressure;Samples;Min_cycle;Max_cycle;Signal;HPM_P1;HPM_P2
2023/04/10 00:01:49;;;;;;;33.70;24.40;;;5.10;99.90;;;;;;5051517;28;20038;-58
2023/04/10 00:04:15;;;;;;;35.97;24.95;;;5.10;99.90;;;;;;5051485;28;20033;-57
2023/04/10 00:06:41;;;;;;;34.97;23.80;;;5.10;99.90;;;;;;5051498;28;20110;-59
2023/04/10 00:09:07;;;;;;;32.92;23.25;;;5.10;99.90;;;;;;5051489;28;20033;-59
2023/04/10 00:11:33;;;;;;;35.17;24.30;;;5.10;99.90;;;;;;5038543;28;20461;-58
2023/04/10 00:13:59;;;;;;;33.53;22.80;;;5.10;99.90;;;;;;5031236;28;20056;-58
2023/04/10 00:16:24;;;;;;;33.35;22.27;;;5.10;99.90;;;;;;5031578;28;20040;-56
2023/04/10 00:18:50;;;;;;;35.17;23.95;;;5.10;99.90;;;;;;5034154;28;20037;-57
2023/04/10 00:21:16;;;;;;;32.28;23.25;;;5.10;99.90;;;;;;5035538;28;20108;-57
2023/04/10 00:23:42;;;;;;;32.45;23.25;;;5.10;99.90;;;;;;5035506;28;20116;-58
2023/04/10 00:26:08;;;;;;;32.22;22.20;;;5.10;99.90;;;;;;5036333;28;20084;-57
2023/04/10 00:28:36;;;;;;;31.67;22.08;;;5.10;99.90;;;;;;5046534;28;20087;-57
2023/04/10 00:31:05;;;;;;;29.08;21.45;;;5.10;99.90;;;;;;5050647;28;20025;-57
2023/04/10 00:33:31;;;;;;;33.72;22.23;;;5.10;99.90;;;;;;5042353;28;20035;-55
2023/04/10 00:35:56;;;;;;;27.02;20.55;;;5.20;99.90;;;;;;5055326;28;20017;-55
2023/04/10 00:38:22;;;;;;;31.83;20.80;;;5.30;99.90;;;;;;5045928;28;20052;-56
2023/04/10 00:40:48;;;;;;;29.05;19.88;;;5.30;99.90;;;;;;5035282;28;20073;-56
2023/04/10 00:43:13;;;;;;;29.48;20.38;;;5.30;99.90;;;;;;5034971;28;20021;-56
2023/04/10 00:45:39;;;;;;;26.83;20.70;;;5.30;99.90;;;;;;5035098;28;20358;-57
2023/04/10 00:48:06;;;;;;;29.02;21.20;;;5.30;99.90;;;;;;5033684;28;20053;-58
2023/04/10 00:50:32;;;;;;;30.65;21.73;;;5.20;99.90;;;;;;5044332;28;20032;-55
2023/04/10 00:52:58;;;;;;;27.98;20.27;;;5.10;99.90;;;;;;5054810;28;20013;-55
2023/04/10 00:55:24;;;;;;;30.50;21.65;;;5.10;99.90;;;;;;5054740;28;20025;-58
2023/04/10 00:57:51;;;;;;;29.58;20.90;;;5.10;99.90;;;;;;5053565;28;20464;-57
2023/04/10 01:00:17;;;;;;;29.33;22.05;;;5.10;99.90;;;;;;5054510;28;20032;-58
2023/04/10 01:02:43;;;;;;;29.60;21.30;;;5.10;99.90;;;;;;5054854;28;20025;-56
2023/04/10 01:05:11;;;;;;;29.77;22.60;;;5.00;99.90;;;;;;5054522;28;20384;-59
2023/04/10 01:07:51;;;;;;;28.88;21.48;;;5.00;99.90;;;;;;5054847;28;20111;-58
2023/04/10 01:10:26;;;;;;;31.30;22.08;;;5.00;99.90;;;;;;5054268;28;20033;-54
2023/04/10 01:12:57;;;;;;;29.65;21.58;;;4.90;99.90;;;;;;5036766;28;20029;-59
2023/04/10 01:15:25;;;;;;;29.23;21.23;;;5.00;99.90;;;;;;5033046;28;20060;-58
2023/04/10 01:18:08;;;;;;;30.75;21.50;;;5.10;99.90;;;;;;5032154;28;20035;-56
2023/04/10 01:20:38;;;;;;;25.90;19.83;;;5.10;99.90;;;;;;5040736;28;20056;-52
2023/04/10 01:23:31;;;;;;;28.90;21.42;;;5.10;99.90;;;;;;5053087;28;20051;-53
2023/04/10 01:26:16;;;;;;;30.53;21.93;;;5.00;99.90;;;;;;5048514;28;20063;-53
2023/04/10 01:29:03;;;;;;;31.92;23.05;;;4.90;99.90;;;;;;5039263;28;20271;-56
2023/04/10 01:32:33;;;;;;;31.73;22.05;;;4.90;99.90;;;;;;5044721;28;20167;-55
2023/04/10 01:35:05;;;;;;;32.50;22.73;;;4.90;99.90;;;;;;5036657;28;20045;-58
2023/04/10 01:37:34;;;;;;;29.25;21.35;;;4.80;99.90;;;;;;5035706;28;20104;-56
2023/04/10 01:40:07;;;;;;;32.15;23.17;;;4.60;99.90;;;;;;5041943;28;20411;-55
2023/04/10 01:42:37;;;;;;;30.70;21.77;;;4.40;99.90;;;;;;5032981;28;20072;-57
2023/04/10 01:45:05;;;;;;;28.83;19.77;;;4.30;99.90;;;;;;5051854;28;20052;-58
2023/04/10 01:47:31;;;;;;;28.70;21.40;;;4.20;99.90;;;;;;5034518;28;20021;-55
2023/04/10 01:49:58;;;;;;;31.65;20.23;;;4.10;99.90;;;;;;5052056;28;20017;-58
2023/04/10 01:52:25;;;;;;;27.42;19.67;;;4.00;99.90;;;;;;5052566;28;20029;-56
2023/04/10 01:54:52;;;;;;;31.23;22.23;;;4.00;99.90;;;;;;5052760;28;20025;-58
2023/04/10 01:57:18;;;;;;;30.23;22.00;;;3.90;99.90;;;;;;5032031;28;20493;-53
2023/04/10 01:59:44;;;;;;;29.85;20.45;;;3.90;99.90;;;;;;5031834;28;20033;-58
2023/04/10 02:02:10;;;;;;;28.15;19.73;;;3.80;99.90;;;;;;5031923;28;20431;-57
2023/04/10 02:04:36;;;;;;;26.48;18.85;;;3.70;99.90;;;;;;5031904;28;20097;-58
2023/04/10 02:07:05;;;;;;;32.97;19.20;;;3.70;99.90;;;;;;5031564;28;20120;-58
2023/04/10 02:09:57;;;;;;;32.80;19.88;;;3.70;99.90;;;;;;5031718;28;20105;-52
2023/04/10 02:15:06;;;;;;;28.50;19.75;;;3.60;99.90;;;;;;5087676;28;20419;-57
2023/04/10 02:17:33;;;;;;;34.03;22.27;;;3.40;99.90;;;;;;5087203;28;20028;-58
2023/04/10 02:20:00;;;;;;;32.17;21.63;;;3.40;99.90;;;;;;5088736;28;20038;-56
2023/04/10 02:22:26;;;;;;;33.30;19.67;;;3.30;99.90;;;;;;5089132;28;20024;-57
2023/04/10 02:24:53;;;;;;;81.05;19.70;;;3.20;99.90;;;;;;5087362;28;20105;-56
2023/04/10 02:27:30;;;;;;;114.95;22.75;;;3.10;99.90;;;;;;5088932;28;20417;-55
2023/04/10 02:29:55;;;;;;;275.20;24.30;;;3.10;99.90;;;;;;5088678;28;20340;-58
2023/04/10 02:32:22;;;;;;;469.70;34.63;;;2.90;99.90;;;;;;5086626;28;20027;-56
2023/04/10 02:34:47;;;;;;;545.40;36.95;;;2.80;99.90;;;;;;5084247;28;20033;-57
2023/04/10 02:37:13;;;;;;;678.92;43.63;;;2.90;99.90;;;;;;5088461;28;20050;-56
2023/04/10 02:39:39;;;;;;;878.65;57.10;;;2.90;99.90;;;;;;5086940;28;20123;-57
2023/04/10 02:42:04;;;;;;;713.53;43.03;;;3.00;99.90;;;;;;5071189;28;20029;-56
2023/04/10 02:44:30;;;;;;;605.50;39.38;;;3.00;99.90;;;;;;5068462;28;20029;-58
2023/04/10 02:46:56;;;;;;;857.85;50.63;;;3.00;99.90;;;;;;5068481;28;20036;-57
2023/04/10 02:49:21;;;;;;;702.38;38.40;;;3.00;99.90;;;;;;5068218;28;20024;-56
2023/04/10 02:51:47;;;;;;;634.25;35.78;;;3.00;99.90;;;;;;5068235;28;20383;-59
2023/04/10 02:54:12;;;;;;;804.13;42.58;;;3.00;99.90;;;;;;5068091;28;20028;-55
2023/04/10 02:56:38;;;;;;;723.90;41.05;;;3.00;99.90;;;;;;5068208;28;20020;-54
2023/04/10 02:59:04;;;;;;;696.58;41.53;;;2.90;99.90;;;;;;5069190;28;20644;-58
2023/04/10 03:01:29;;;;;;;665.13;39.47;;;2.80;99.90;;;;;;5081591;28;20035;-59
2023/04/10 03:03:56;;;;;;;771.28;43.78;;;2.90;99.90;;;;;;5082423;28;20036;-59
2023/04/10 03:06:25;;;;;;;677.05;37.15;;;2.80;99.90;;;;;;5080998;28;20024;-54
2023/04/10 03:08:50;;;;;;;405.70;32.45;;;2.80;99.90;;;;;;5086404;28;20496;-57
2023/04/10 03:11:16;;;;;;;707.10;38.35;;;2.80;99.90;;;;;;5086933;28;20063;-60
2023/04/10 03:13:41;;;;;;;559.45;33.95;;;2.90;99.90;;;;;;5085575;28;20398;-53
2023/04/10 03:16:07;;;;;;;574.92;37.10;;;2.80;99.90;;;;;;5086827;28;20032;-59
2023/04/10 03:18:33;;;;;;;541.53;34.55;;;2.80;99.90;;;;;;5086958;28;20025;-57
2023/04/10 03:21:00;;;;;;;476.27;32.65;;;2.70;99.90;;;;;;5086813;28;20046;-53
2023/04/10 03:23:26;;;;;;;358.15;27.50;;;2.60;99.90;;;;;;5085232;28;20027;-57
2023/04/10 03:25:53;;;;;;;396.42;26.63;;;2.60;99.90;;;;;;5072682;28;20039;-56
2023/04/10 03:28:22;;;;;;;278.98;24.67;;;2.50;99.90;;;;;;5073346;28;20519;-57
2023/04/10 03:30:49;;;;;;;264.23;26.45;;;2.40;99.90;;;;;;5062559;28;20373;-57
2023/04/10 03:33:15;;;;;;;258.90;23.77;;;2.30;99.90;;;;;;5058156;28;20039;-56
2023/04/10 03:35:41;;;;;;;224.63;26.73;;;2.20;99.90;;;;;;5068055;28;20025;-54
2023/04/10 03:38:07;;;;;;;134.48;18.60;;;2.10;99.90;;;;;;5063040;28;20025;-53
2023/04/10 03:40:33;;;;;;;207.98;21.35;;;2.10;99.90;;;;;;5053403;28;20017;-56
2023/04/10 03:42:59;;;;;;;98.30;19.38;;;2.00;99.90;;;;;;5053040;28;20031;-58
2023/04/10 03:45:25;;;;;;;175.90;20.55;;;1.90;99.90;;;;;;5052753;28;20479;-58
2023/04/10 03:47:51;;;;;;;231.85;23.13;;;1.80;99.90;;;;;;5053995;28;20120;-57
2023/04/10 03:50:17;;;;;;;116.53;16.77;;;1.70;99.90;;;;;;5053872;28;20063;-58
2023/04/10 03:52:44;;;;;;;151.18;18.60;;;1.60;99.90;;;;;;5053885;28;20029;-55
2023/04/10 03:55:10;;;;;;;123.13;17.80;;;1.50;99.90;;;;;;5053744;28;20456;-56
2023/04/10 03:57:35;;;;;;;212.30;18.75;;;1.50;99.90;;;;;;5054008;28;20032;-56
2023/04/10 04:00:02;;;;;;;215.65;20.08;;;1.40;99.90;;;;;;5053652;28;20054;-58
2023/04/10 04:02:28;;;;;;;185.20;18.83;;;1.30;99.90;;;;;;5052297;28;20032;-53
2023/04/10 04:04:54;;;;;;;210.15;19.42;;;1.30;99.90;;;;;;5053469;28;20025;-57
2023/04/10 04:07:19;;;;;;;265.70;25.02;;;1.30;99.90;;;;;;5052755;28;20029;-52
2023/04/10 04:09:45;;;;;;;149.60;19.02;;;1.20;99.90;;;;;;5053089;28;20032;-53
2023/04/10 04:12:11;;;;;;;216.90;21.27;;;1.30;99.90;;;;;;5051380;28;20548;-56
2023/04/10 04:14:37;;;;;;;331.95;25.85;;;1.30;99.90;;;;;;5053235;28;20053;-54
2023/04/10 04:17:03;;;;;;;344.42;29.65;;;1.30;99.90;;;;;;5053503;28;20025;-57
2023/04/10 04:19:28;;;;;;;412.52;28.65;;;1.30;99.90;;;;;;5053381;28;20123;-57
2023/04/10 04:21:54;;;;;;;437.52;27.85;;;1.20;99.90;;;;;;5053322;28;20048;-55
2023/04/10 04:24:20;;;;;;;362.45;25.02;;;1.30;99.90;;;;;;5053197;28;20017;-59
2023/04/10 04:26:46;;;;;;;264.73;21.48;;;1.30;99.90;;;;;;5053126;28;20127;-54
2023/04/10 04:29:12;;;;;;;280.98;21.23;;;1.30;99.90;;;;;;5053191;28;20115;-57
2023/04/10 04:31:37;;;;;;;525.15;31.77;;;1.30;99.90;;;;;;5069724;28;20033;-55
2023/04/10 04:34:03;;;;;;;490.02;30.02;;;1.30;99.90;;;;;;5056645;28;20033;-58
2023/04/10 04:36:28;;;;;;;307.63;22.20;;;1.30;99.90;;;;;;5066856;28;20056;-53
2023/04/10 04:38:54;;;;;;;345.63;25.92;;;1.20;99.90;;;;;;5071315;28;20141;-56
2023/04/10 04:41:20;;;;;;;195.57;19.40;;;1.20;99.90;;;;;;5072674;28;20028;-58
2023/04/10 04:43:52;;;;;;;134.55;17.35;;;1.20;99.90;;;;;;5064718;28;20028;-55
2023/04/10 04:46:17;;;;;;;177.73;19.77;;;1.20;99.90;;;;;;5071230;28;20036;-60
2023/04/10 04:48:43;;;;;;;277.08;18.25;;;1.20;99.90;;;;;;5072512;28;20074;-57
2023/04/10 04:51:09;;;;;;;66.85;14.32;;;1.20;99.90;;;;;;5072124;28;20032;-55
2023/04/10 04:53:35;;;;;;;86.40;16.73;;;1.10;99.90;;;;;;5072259;28;20430;-53
2023/04/10 04:56:01;;;;;;;161.88;17.38;;;1.10;99.90;;;;;;5071037;28;20375;-54
2023/04/10 04:58:27;;;;;;;191.85;16.65;;;1.10;99.90;;;;;;5072429;28;20396;-54
2023/04/10 05:00:53;;;;;;;177.98;15.88;;;1.10;99.90;;;;;;5072143;28;20035;-57
2023/04/10 05:03:19;;;;;;;113.65;15.40;;;1.10;99.90;;;;;;5071078;28;20556;-53
2023/04/10 05:05:45;;;;;;;176.95;17.48;;;1.00;99.90;;;;;;5072151;28;20036;-58
2023/04/10 05:08:11;;;;;;;25.17;15.38;;;1.00;99.90;;;;;;5060690;28;20033;-59
2023/04/10 05:10:36;;;;;;;46.25;15.85;;;1.20;99.90;;;;;;5052385;28;20035;-57
2023/04/10 05:13:02;;;;;;;31.25;16.95;;;1.40;99.90;;;;;;5051478;28;20041;-54
2023/04/10 05:15:28;;;;;;;157.27;18.58;;;1.50;99.90;;;;;;5060167;28;20033;-58
2023/04/10 05:17:53;;;;;;;21.83;14.43;;;1.60;99.90;;;;;;5061032;28;20021;-56
2023/04/10 05:20:20;;;;;;;211.52;19.92;;;1.70;99.90;;;;;;5071487;28;20024;-54
2023/04/10 05:22:46;;;;;;;20.27;14.05;;;1.70;99.90;;;;;;5061674;28;20392;-54
2023/04/10 05:25:12;;;;;;;37.47;14.95;;;1.80;99.90;;;;;;5053316;28;20052;-57
2023/04/10 05:27:38;;;;;;;464.75;24.58;;;1.80;99.90;;;;;;5060899;28;20412;-58
2023/04/10 05:30:10;;;;;;;186.55;17.65;;;2.00;99.90;;;;;;5067008;28;20032;-56
2023/04/10 05:32:36;;;;;;;295.98;19.30;;;2.00;99.90;;;;;;5052097;28;20094;-57
2023/04/10 05:35:01;;;;;;;119.68;14.57;;;1.90;99.90;;;;;;5059868;28;20036;-59
2023/04/10 05:37:27;;;;;;;114.72;14.80;;;2.00;99.90;;;;;;5056355;28;20032;-58
2023/04/10 05:39:53;;;;;;;136.98;14.07;;;2.00;99.90;;;;;;5051720;28;20029;-56
2023/04/10 05:42:18;;;;;;;89.45;14.43;;;2.10;99.90;;;;;;5062752;28;20029;-59
2023/04/10 05:44:44;;;;;;;126.32;15.73;;;2.20;99.90;;;;;;5052006;28;20021;-56
2023/04/10 05:47:10;;;;;;;233.18;17.48;;;2.30;99.90;;;;;;5050329;28;20028;-58
2023/04/10 05:49:35;;;;;;;89.05;16.48;;;2.40;99.90;;;;;;5051493;28;20440;-56
2023/04/10 05:52:01;;;;;;;331.50;18.48;;;2.60;99.90;;;;;;5051575;28;20643;-53
2023/04/10 05:54:33;;;;;;;257.70;20.58;;;2.60;99.90;;;;;;5051828;28;20551;-58
2023/04/10 05:57:00;;;;;;;150.57;18.95;;;2.50;99.90;;;;;;5051476;28;20021;-54
2023/04/10 05:59:26;;;;;;;177.50;17.73;;;2.60;99.90;;;;;;5051496;28;20452;-59
2023/04/10 06:01:52;;;;;;;15.82;12.45;;;2.70;99.90;;;;;;5051667;28;20029;-57
2023/04/10 06:04:17;;;;;;;146.63;13.52;;;2.90;99.90;;;;;;5051257;28;20096;-58
2023/04/10 06:06:43;;;;;;;22.70;11.70;;;3.00;99.90;;;;;;5051629;28;20021;-56
2023/04/10 06:09:09;;;;;;;27.45;11.55;;;3.10;99.90;;;;;;5051547;28;20033;-57
2023/04/10 06:11:34;;;;;;;206.07;16.23;;;3.30;99.90;;;;;;5051664;28;20025;-55
2023/04/10 06:14:01;;;;;;;134.25;14.95;;;3.30;99.90;;;;;;5051156;28;20044;-56
2023/04/10 06:16:26;;;;;;;91.60;14.27;;;3.20;99.90;;;;;;5062844;28;20103;-59
2023/04/10 06:18:58;;;;;;;175.35;15.77;;;3.10;99.90;;;;;;5051364;28;20072;-56
2023/04/10 06:21:24;;;;;;;87.88;14.55;;;3.30;99.90;;;;;;5051377;28;20044;-56
2023/04/10 06:23:50;;;;;;;179.75;15.60;;;3.30;99.90;;;;;;5051534;28;20107;-58
2023/04/10 06:26:16;;;;;;;65.35;18.10;;;3.30;99.90;;;;;;5052350;28;20756;-59
2023/04/10 06:28:42;;;;;;;110.43;15.25;;;3.40;99.90;;;;;;5056598;28;20376;-56
2023/04/10 06:31:07;;;;;;;134.65;15.98;;;3.60;99.90;;;;;;5065660;28;20025;-56
2023/04/10 06:33:36;;;;;;;52.92;13.35;;;3.70;99.90;;;;;;5051115;28;20044;-58
2023/04/10 06:36:02;;;;;;;77.03;14.73;;;3.80;99.90;;;;;;5051144;28;20392;-55
2023/04/10 06:38:28;;;;;;;148.55;16.95;;;3.80;99.90;;;;;;5051063;28;20017;-57
2023/04/10 06:40:54;;;;;;;36.80;12.77;;;4.00;99.90;;;;;;5050759;28;20051;-52
2023/04/10 06:43:19;;;;;;;185.55;16.90;;;4.20;99.90;;;;;;5051097;28;20032;-57
2023/04/10 06:45:45;;;;;;;297.92;21.38;;;4.10;99.90;;;;;;5050603;28;20024;-59
2023/04/10 06:48:11;;;;;;;373.38;22.25;;;4.20;99.90;;;;;;5063186;28;20471;-57
2023/04/10 06:50:37;;;;;;;356.23;20.45;;;4.20;99.90;;;;;;5069912;28;20020;-58
2023/04/10 06:53:02;;;;;;;406.40;23.52;;;4.10;99.90;;;;;;5070817;28;20486;-58
2023/04/10 06:55:28;;;;;;;247.18;19.13;;;4.00;99.90;;;;;;5070925;28;20021;-56
2023/04/10 06:57:55;;;;;;;146.02;16.52;;;4.10;99.90;;;;;;5070912;28;20032;-55
2023/04/10 07:00:21;;;;;;;156.57;17.35;;;4.20;99.90;;;;;;5070343;28;20017;-58
2023/04/10 07:02:47;;;;;;;160.27;16.73;;;4.40;99.90;;;;;;5055515;28;20078;-59
2023/04/10 07:05:13;;;;;;;68.18;15.15;;;4.40;99.90;;;;;;5057304;28;20021;-58
2023/04/10 07:07:39;;;;;;;23.65;13.20;;;4.60;99.90;;;;;;5074739;28;20503;-57
2023/04/10 07:10:06;;;;;;;165.38;17.33;;;5.10;99.90;;;;;;5072962;28;20031;-52
2023/04/10 07:12:32;;;;;;;23.55;13.38;;;5.20;99.90;;;;;;5074240;28;20025;-56
2023/04/10 07:14:57;;;;;;;191.35;16.70;;;5.20;99.90;;;;;;5072371;28;20679;-59
2023/04/10 07:17:23;;;;;;;144.50;16.05;;;5.30;99.90;;;;;;5074096;28;20119;-56
2023/04/10 07:19:49;;;;;;;84.82;14.88;;;5.20;99.90;;;;;;5069624;28;20040;-53
2023/04/10 07:22:15;;;;;;;91.20;15.65;;;5.40;99.90;;;;;;5074457;28;20025;-54
2023/04/10 07:24:41;;;;;;;97.47;14.43;;;5.70;99.90;;;;;;5074464;28;20032;-57
2023/04/10 07:27:07;;;;;;;79.95;13.98;;;5.80;99.90;;;;;;5072475;28;20364;-55
2023/04/10 07:29:32;;;;;;;31.98;10.77;;;6.30;99.90;;;;;;5060256;28;20434;-60
2023/04/10 07:31:58;;;;;;;14.55;11.95;;;6.90;99.90;;;;;;5061957;28;20028;-58
2023/04/10 07:34:24;;;;;;;15.02;11.77;;;7.20;99.90;;;;;;5069790;28;20021;-58
2023/04/10 07:36:51;;;;;;;13.48;10.98;;;7.30;99.90;;;;;;5074050;28;20016;-60
2023/04/10 07:39:16;;;;;;;31.52;11.35;;;7.20;99.90;;;;;;5063422;28;20543;-60
2023/04/10 07:41:42;;;;;;;16.50;11.00;;;7.40;99.90;;;;;;5052704;28;20060;-60
2023/04/10 07:44:08;;;;;;;13.65;11.27;;;7.70;99.90;;;;;;5053961;28;20029;-59
2023/04/10 07:46:34;;;;;;;12.23;10.02;;;7.80;99.90;;;;;;5053943;28;20025;-59
2023/04/10 07:49:00;;;;;;;18.67;14.15;;;7.90;99.90;;;;;;5053853;28;20031;-59
2023/04/10 07:51:26;;;;;;;17.27;14.10;;;7.90;99.90;;;;;;5053980;28;20568;-56
2023/04/10 07:53:52;;;;;;;18.30;13.23;;;7.70;99.90;;;;;;5053849;28;20051;-58
2023/04/10 07:56:19;;;;;;;13.50;11.88;;;7.90;99.90;;;;;;5053393;28;20021;-59
2023/04/10 07:58:45;;;;;;;16.70;13.85;;;7.70;99.90;;;;;;5053611;28;20041;-58
2023/04/10 08:01:11;;;;;;;17.85;13.35;;;7.60;99.90;;;;;;5053380;28;20036;-59
2023/04/10 08:03:41;;;;;;;15.30;12.35;;;7.40;99.90;;;;;;5052902;28;20009;-58
2023/04/10 08:06:08;;;;;;;16.95;14.13;;;7.60;99.90;;;;;;5053615;28;20051;-59
2023/04/10 08:08:37;;;;;;;18.83;12.32;;;7.50;99.90;;;;;;5053541;28;20029;-59
2023/04/10 08:11:30;;;;;;;16.58;13.30;;;7.50;99.90;;;;;;5053120;28;20056;-57
2023/04/10 08:13:57;;;;;;;17.08;13.55;;;7.60;99.90;;;;;;5032375;28;20045;-58
2023/04/10 08:16:24;;;;;;;14.15;11.63;;;7.90;99.90;;;;;;5047387;28;20040;-56
2023/04/10 08:18:51;;;;;;;14.18;12.07;;;8.10;99.90;;;;;;5053394;28;20039;-58
2023/04/10 08:21:18;;;;;;;14.52;11.85;;;8.20;99.90;;;;;;5067584;28;20069;-59
2023/04/10 08:23:45;;;;;;;18.50;13.95;;;7.90;99.90;;;;;;5057488;28;20495;-58
2023/04/10 08:26:10;;;;;;;15.27;11.80;;;8.10;99.90;;;;;;5052306;28;20469;-55
2023/04/10 08:28:36;;;;;;;14.05;11.15;;;8.40;99.90;;;;;;5053073;28;20039;-56
2023/04/10 08:31:02;;;;;;;16.05;12.88;;;8.50;99.90;;;;;;5052999;28;20068;-58
2023/04/10 08:33:28;;;;;;;17.27;11.93;;;8.30;99.90;;;;;;5052761;28;20033;-57
2023/04/10 08:35:53;;;;;;;15.77;12.88;;;8.20;99.90;;;;;;5061891;28;20047;-58
2023/04/10 08:38:20;;;;;;;16.85;13.18;;;8.20;99.90;;;;;;5067225;28;20790;-56
2023/04/10 08:40:46;;;;;;;14.20;11.45;;;8.00;99.90;;;;;;5052803;28;20021;-58
2023/04/10 08:43:12;;;;;;;14.43;11.93;;;8.20;99.90;;;;;;5052875;28;20028;-56
2023/04/10 08:45:40;;;;;;;14.20;11.35;;;8.50;99.90;;;;;;5052748;28;20025;-58
2023/04/10 08:48:07;;;;;;;16.50;12.35;;;8.70;99.90;;;;;;5052629;28;20036;-57
2023/04/10 08:50:37;;;;;;;13.25;11.38;;;8.70;99.90;;;;;;5052722;28;20039;-58
2023/04/10 08:53:12;;;;;;;15.20;11.55;;;8.70;99.90;;;;;;5060325;28;20039;-58
2023/04/10 08:55:39;;;;;;;15.35;12.98;;;9.00;99.90;;;;;;5052508;28;20020;-56
2023/04/10 08:58:06;;;;;;;16.90;11.27;;;9.00;99.90;;;;;;5052506;28;20029;-57
2023/04/10 09:00:37;;;;;;;13.23;10.60;;;9.10;99.90;;;;;;5052435;28;20017;-58
2023/04/10 09:03:07;;;;;;;14.50;11.05;;;9.10;99.90;;;;;;5051191;28;20028;-57
2023/04/10 09:05:34;;;;;;;17.80;12.85;;;9.20;99.90;;;;;;5051163;28;20028;-57
2023/04/10 09:08:00;;;;;;;15.48;12.88;;;9.20;99.90;;;;;;5057518;28;20024;-56
2023/04/10 09:10:25;;;;;;;14.77;11.57;;;9.20;99.90;;;;;;5071710;28;20524;-56
2023/04/10 09:12:51;;;;;;;15.68;11.50;;;9.20;99.90;;;;;;5058933;28;20104;-58
2023/04/10 09:15:17;;;;;;;15.73;11.13;;;9.40;99.90;;;;;;5051867;28;20392;-58
2023/04/10 09:18:00;;;;;;;14.60;11.35;;;9.40;99.90;;;;;;5052278;28;20033;-58
2023/04/10 09:20:30;;;;;;;14.53;11.63;;;9.20;99.90;;;;;;5052121;28;20028;-57
2023/04/10 09:22:56;;;;;;;13.85;10.85;;;9.70;99.90;;;;;;5051427;28;20342;-57
2023/04/10 09:25:30;;;;;;;13.73;11.13;;;9.90;99.90;;;;;;5059150;28;20023;-59
2023/04/10 09:28:03;;;;;;;16.35;12.57;;;10.20;99.90;;;;;;5066823;28;20119;-58
2023/04/10 09:30:33;;;;;;;12.63;10.57;;;10.40;99.90;;;;;;5062532;28;20021;-57
2023/04/10 09:32:59;;;;;;;13.77;10.73;;;10.40;99.90;;;;;;5055092;28;20361;-57
2023/04/10 09:35:35;;;;;;;13.68;10.82;;;10.50;99.90;;;;;;5051478;28;20027;-59
2023/04/10 09:38:11;;;;;;;17.27;11.38;;;10.70;99.90;;;;;;5051582;28;20088;-59
2023/04/10 09:40:37;;;;;;;15.18;11.40;;;10.90;99.90;;;;;;5051351;28;20380;-58
2023/04/10 09:43:17;;;;;;;14.88;11.63;;;11.10;99.90;;;;;;5047701;28;20028;-58
2023/04/10 09:45:51;;;;;;;12.82;10.90;;;10.90;99.90;;;;;;5059216;28;20598;-58
2023/04/10 09:48:17;;;;;;;13.75;11.32;;;10.90;99.90;;;;;;5056001;28;20029;-58
2023/04/10 09:50:44;;;;;;;15.85;12.15;;;11.20;99.90;;;;;;5050644;28;20017;-57
2023/04/10 09:53:12;;;;;;;13.45;11.00;;;11.20;99.90;;;;;;5051088;28;20044;-57
2023/04/10 09:55:38;;;;;;;12.93;10.43;;;11.60;99.90;;;;;;5058077;28;20029;-57
2023/04/10 09:58:05;;;;;;;13.95;10.55;;;12.00;99.90;;;;;;5052584;28;20036;-57
2023/04/10 10:00:45;;;;;;;15.88;12.45;;;12.10;99.90;;;;;;5049745;28;20499;-58
2023/04/10 10:03:13;;;;;;;11.48;10.27;;;11.90;97.90;;;;;;5051363;28;20112;-59
2023/04/10 10:05:45;;;;;;;13.35;11.88;;;12.20;98.80;;;;;;5051495;28;20492;-57
2023/04/10 10:08:13;;;;;;;22.55;13.65;;;12.50;99.60;;;;;;5051364;28;20586;-59
2023/04/10 10:10:51;;;;;;;13.23;10.57;;;13.00;99.60;;;;;;5054864;28;20025;-58
2023/04/10 10:13:23;;;;;;;13.95;11.27;;;13.20;97.50;;;;;;5056101;28;20672;-59
2023/04/10 10:16:19;;;;;;;13.52;11.25;;;13.50;96.20;;;;;;5059978;28;20082;-59
2023/04/10 10:18:54;;;;;;;13.93;11.90;;;13.70;95.80;;;;;;5058755;28;20025;-59
2023/04/10 10:21:22;;;;;;;14.48;11.25;;;13.60;94.70;;;;;;5027983;28;20034;-59
2023/04/10 10:23:52;;;;;;;13.93;11.45;;;13.00;93.50;;;;;;5032401;28;20030;-58
2023/04/10 10:26:19;;;;;;;16.38;13.15;;;13.00;94.10;;;;;;5020491;28;20029;-59
2023/04/10 10:28:46;;;;;;;17.20;13.40;;;13.10;95.10;;;;;;5021864;28;20029;-59
2023/04/10 10:31:12;;;;;;;17.35;14.32;;;13.10;96.30;;;;;;5020384;28;20044;-59
2023/04/10 10:33:39;;;;;;;13.68;12.20;;;13.00;95.50;;;;;;5021279;28;20112;-59
2023/04/10 10:36:07;;;;;;;12.38;11.05;;;13.50;95.40;;;;;;5023910;28;20704;-59
2023/04/10 10:38:36;;;;;;;15.00;11.02;;;13.30;90.90;;;;;;5025018;28;20038;-58
2023/04/10 10:41:25;;;;;;;14.55;11.98;;;13.60;91.60;;;;;;5026066;28;20357;-58
2023/04/10 10:44:41;;;;;;;14.18;11.88;;;14.00;93.40;;;;;;5024651;28;20045;-59
2023/04/10 10:47:15;;;;;;;12.73;10.80;;;14.20;92.10;;;;;;5041515;28;20114;-59
2023/04/10 10:49:58;;;;;;;15.05;12.25;;;14.40;91.40;;;;;;5039743;28;20033;-59
2023/04/10 10:52:43;;;;;;;15.45;12.02;;;14.30;87.10;;;;;;5034358;28;20026;-59
2023/04/10 10:55:20;;;;;;;15.70;12.73;;;14.50;88.30;;;;;;5025011;28;20061;-59
2023/04/10 10:58:11;;;;;;;11.23;9.73;;;14.70;87.60;;;;;;5024402;28;20068;-59
2023/04/10 11:00:51;;;;;;;12.55;9.73;;;14.80;85.00;;;;;;5023891;28;20025;-59
2023/04/10 11:03:17;;;;;;;16.17;12.85;;;14.80;85.70;;;;;;5023810;28;20033;-59
2023/04/10 11:05:55;;;;;;;14.60;11.35;;;15.20;86.20;;;;;;5057228;28;20045;-59
2023/04/10 11:08:34;;;;;;;15.98;12.43;;;15.20;88.70;;;;;;5024203;28;20159;-59
2023/04/10 11:11:05;;;;;;;12.27;10.70;;;15.30;84.30;;;;;;5060277;28;20029;-59
2023/04/10 11:13:32;;;;;;;12.88;11.18;;;15.30;84.50;;;;;;5057733;28;20066;-59
2023/04/10 11:16:00;;;;;;;13.40;11.52;;;15.10;78.50;;;;;;5074276;28;20027;-59
2023/04/10 11:18:44;;;;;;;11.35;9.60;;;15.30;83.50;;;;;;5074486;28;20020;-59
2023/04/10 11:21:15;;;;;;;13.05;9.48;;;15.80;80.60;;;;;;5074292;28;20480;-58
2023/04/10 11:23:49;;;;;;;10.77;8.60;;;16.90;75.30;;;;;;5074313;28;20036;-59
2023/04/10 11:26:38;;;;;;;9.32;7.85;;;18.30;68.40;;;;;;5074078;28;20183;-60
2023/04/10 11:29:18;;;;;;;8.80;7.72;;;19.00;63.70;;;;;;5063438;28;20021;-59
2023/04/10 11:31:45;;;;;;;8.65;7.75;;;19.20;59.80;;;;;;5054216;28;20056;-59
2023/04/10 11:34:11;;;;;;;9.18;7.95;;;19.30;55.50;;;;;;5054141;28;20017;-60
2023/04/10 11:36:39;;;;;;;8.73;7.18;;;19.50;53.80;;;;;;5054178;28;20063;-60
2023/04/10 11:39:12;;;;;;;7.82;7.00;;;20.80;53.90;;;;;;5053819;28;20411;-60
2023/04/10 11:41:40;;;;;;;8.80;7.90;;;19.60;49.50;;;;;;5055416;28;20364;-60
2023/04/10 11:44:09;;;;;;;9.00;8.02;;;18.40;53.70;;;;;;5053839;28;20041;-60
2023/04/10 11:46:40;;;;;;;8.57;7.32;;;18.20;53.30;;;;;;5053887;28;20021;-60
2023/04/10 11:49:08;;;;;;;8.95;7.28;;;18.30;55.90;;;;;;5053880;28;20092;-60
2023/04/10 11:51:35;;;;;;;7.80;7.10;;;18.80;53.40;;;;;;5053878;28;20052;-59
2023/04/10 11:54:04;;;;;;;20.92;8.30;;;19.50;52.60;;;;;;5053582;28;20029;-60
2023/04/10 11:56:30;;;;;;;8.20;7.07;;;20.10;50.50;;;;;;5053776;28;20025;-60
2023/04/10 11:58:55;;;;;;;9.88;8.68;;;20.60;48.60;;;;;;5053592;28;20033;-60
2023/04/10 12:01:21;;;;;;;9.00;7.68;;;20.40;49.90;;;;;;5053753;28;20024;-58
2023/04/10 12:03:47;;;;;;;7.70;6.90;;;21.00;49.90;;;;;;5053809;28;20022;-59
2023/04/10 12:06:14;;;;;;;11.00;8.00;;;21.90;50.10;;;;;;5053286;28;20522;-60
2023/04/10 12:08:44;;;;;;;8.95;7.40;;;21.70;48.20;;;;;;5052142;28;20021;-59
2023/04/10 12:11:10;;;;;;;10.18;8.55;;;19.60;47.90;;;;;;5057686;28;20349;-60
2023/04/10 12:13:37;;;;;;;10.85;9.57;;;20.40;49.20;;;;;;5073214;28;20070;-60
2023/04/10 12:16:06;;;;;;;52.10;34.47;;;20.90;46.10;;;;;;5073269;28;20021;-60
2023/04/10 12:18:32;;;;;;;10.07;8.98;;;21.90;46.10;;;;;;5073210;28;20032;-60
2023/04/10 12:20:59;;;;;;;7.03;6.32;;;22.80;47.20;;;;;;5073268;28;20454;-60
2023/04/10 12:23:26;;;;;;;8.90;7.32;;;22.80;43.10;;;;;;5073382;28;20020;-60
2023/04/10 12:26:04;;;;;;;7.32;6.63;;;23.20;42.50;;;;;;5072865;28;20029;-60
2023/04/10 12:28:30;;;;;;;7.35;6.65;;;21.80;42.00;;;;;;5057279;28;20013;-60
2023/04/10 12:30:56;;;;;;;8.63;7.07;;;21.70;43.40;;;;;;5064320;28;20024;-60
2023/04/10 12:33:23;;;;;;;8.60;7.30;;;22.10;45.80;;;;;;5064925;28;20025;-60
2023/04/10 12:35:49;;;;;;;7.32;6.60;;;23.20;44.40;;;;;;5072914;28;20020;-61
2023/04/10 12:38:15;;;;;;;7.68;6.60;;;23.10;43.60;;;;;;5072933;28;20027;-59
2023/04/10 12:41:00;;;;;;;7.25;6.50;;;22.20;43.10;;;;;;5072844;28;20371;-59
2023/04/10 12:43:40;;;;;;;11.30;7.60;;;21.40;44.20;;;;;;5073172;28;20106;-60